createdAt,value
2023-05-02T00:00:10.312Z,69.15
2023-05-02T00:01:10.224Z,69.59
2023-05-02T00:02:10.202Z,69.38
2023-05-02T00:03:10.203Z,69.56
2023-05-02T00:04:10.252Z,69.59
2023-05-02T00:05:10.140Z,69.90
2023-05-02T00:06:10.109Z,69.79
2023-05-02T00:07:10.032Z,70.20
2023-05-02T00:08:09.997Z,70.34
2023-05-02T00:09:09.957Z,70.44
2023-05-02T00:10:09.987Z,70.23
2023-05-02T00:11:09.903Z,70.54
2023-05-02T00:12:09.872Z,70.85
2023-05-02T00:13:09.818Z,71.56
2023-05-02T00:14:09.817Z,71.67
2023-05-02T00:15:09.758Z,72.72
2023-05-02T00:16:09.785Z,72.52
2023-05-02T00:17:09.827Z,73.03
2023-05-02T00:18:09.722Z,72.82
2023-05-02T00:19:09.635Z,72.65
2023-05-02T00:20:09.603Z,72.82
2023-05-02T00:21:09.569Z,72.65
2023-05-02T00:22:09.797Z,72.34
2023-05-02T00:23:09.497Z,72.55
2023-05-02T00:24:09.470Z,72.75
2023-05-02T00:25:09.441Z,72.65
2023-05-02T00:26:09.416Z,72.86
2023-05-02T00:27:09.364Z,72.75
2023-05-02T00:28:09.401Z,72.55
2023-05-02T00:29:09.351Z,72.24
2023-05-02T00:30:09.270Z,72.65
2023-05-02T00:31:09.270Z,72.96
2023-05-02T00:32:09.291Z,72.24
2023-05-02T00:33:09.242Z,71.94
2023-05-02T00:34:09.146Z,72.86
2023-05-02T00:35:09.108Z,72.04
2023-05-02T00:36:09.075Z,72.04
2023-05-02T00:37:09.047Z,72.75
2023-05-02T00:38:09.098Z,72.96
2023-05-02T00:39:08.986Z,72.86
2023-05-02T00:40:08.951Z,72.96
2023-05-02T00:41:08.926Z,72.86
2023-05-02T00:42:08.888Z,72.96
2023-05-02T00:43:08.858Z,73.06
2023-05-02T00:44:08.879Z,72.75
2023-05-02T00:45:08.788Z,72.99
2023-05-02T00:46:08.801Z,72.48
2023-05-02T00:47:08.720Z,72.96
2023-05-02T00:48:08.741Z,72.96
2023-05-02T00:49:08.704Z,72.96
2023-05-02T00:50:08.633Z,73.06
2023-05-02T00:51:08.661Z,72.99
2023-05-02T00:52:08.556Z,72.75
2023-05-02T00:53:08.520Z,72.79
2023-05-02T00:54:08.488Z,72.65
2023-05-02T00:55:08.516Z,73.06
2023-05-02T00:56:08.411Z,73.06
2023-05-02T00:57:08.394Z,72.75
2023-05-02T00:58:08.349Z,72.86
2023-05-02T00:59:08.321Z,73.16
2023-05-02T01:00:08.283Z,73.47
2023-05-02T01:01:08.336Z,72.86
2023-05-02T01:02:08.277Z,73.47
2023-05-02T01:03:08.322Z,73.77
2023-05-02T01:04:08.182Z,73.57
2023-05-02T01:05:08.123Z,73.98
2023-05-02T01:06:08.116Z,73.91
2023-05-02T01:07:08.068Z,74.02
2023-05-02T01:08:08.023Z,74.22
2023-05-02T01:09:08.064Z,74.22
2023-05-02T01:10:07.959Z,74.22
2023-05-02T01:11:07.921Z,73.98
2023-05-02T01:12:07.901Z,74.69
2023-05-02T01:13:07.869Z,74.39
2023-05-02T01:14:07.821Z,74.49
2023-05-02T01:15:07.866Z,74.93
2023-05-02T01:16:07.881Z,76.12
2023-05-02T01:17:07.726Z,74.80
2023-05-02T01:18:07.738Z,74.73
2023-05-02T01:19:07.659Z,75.10
2023-05-02T01:20:07.636Z,74.90
2023-05-02T01:21:07.652Z,74.80
2023-05-02T01:22:07.570Z,75.04
2023-05-02T01:23:07.534Z,75.04
2023-05-02T01:24:07.529Z,74.90
2023-05-02T01:25:07.528Z,75.82
2023-05-02T01:26:07.443Z,75.71
2023-05-02T01:27:07.404Z,75.00
2023-05-02T01:28:07.372Z,75.71
2023-05-02T01:29:07.357Z,75.00
2023-05-02T01:30:07.356Z,75.31
2023-05-02T01:31:07.329Z,75.27
2023-05-02T01:32:07.437Z,74.87
2023-05-02T01:33:07.232Z,74.80
2023-05-02T01:34:07.185Z,75.17
2023-05-02T01:35:07.196Z,74.87
2023-05-02T01:36:07.103Z,75.17
2023-05-02T01:37:07.603Z,75.99
2023-05-02T01:38:07.087Z,75.89
2023-05-02T01:39:07.013Z,75.82
2023-05-02T01:40:06.980Z,76.12
2023-05-02T01:41:06.999Z,76.23
2023-05-02T01:42:06.911Z,77.04
2023-05-02T01:43:06.882Z,76.94
2023-05-02T01:44:06.844Z,77.15
2023-05-02T01:45:06.804Z,76.94
2023-05-02T01:46:06.843Z,77.35
2023-05-02T01:47:06.821Z,77.70
2023-05-02T01:48:06.813Z,77.97
2023-05-02T01:49:06.683Z,78.20
2023-05-02T01:50:06.675Z,78.20
2023-05-02T01:51:06.688Z,78.61
2023-05-02T01:52:06.639Z,78.52
2023-05-02T01:53:06.558Z,79.33
2023-05-02T01:54:06.517Z,78.78
2023-05-02T01:55:06.489Z,78.78
2023-05-02T01:56:06.455Z,78.88
2023-05-02T01:57:06.483Z,79.19
2023-05-02T01:58:06.396Z,78.99
2023-05-02T01:59:06.348Z,79.53
2023-05-02T02:00:06.367Z,80.05
2023-05-02T02:01:06.298Z,79.53
2023-05-02T02:02:06.253Z,80.25
2023-05-02T02:03:06.370Z,80.15
2023-05-02T02:04:06.264Z,80.35
2023-05-02T02:05:06.151Z,81.27
2023-05-02T02:06:06.135Z,80.87
2023-05-02T02:07:06.084Z,80.73
2023-05-02T02:08:06.059Z,80.93
2023-05-02T02:09:06.096Z,80.42
2023-05-02T02:10:05.994Z,80.73
2023-05-02T02:11:05.963Z,80.42
2023-05-02T02:12:05.915Z,80.11
2023-05-02T02:13:05.887Z,80.32
2023-05-02T02:14:05.854Z,80.32
2023-05-02T02:15:05.878Z,80.32
2023-05-02T02:16:05.799Z,80.52
2023-05-02T02:17:05.889Z,80.62
2023-05-02T02:18:05.749Z,80.52
2023-05-02T02:19:05.685Z,80.73
2023-05-02T02:20:05.652Z,80.73
2023-05-02T02:21:05.733Z,81.03
2023-05-02T02:22:05.590Z,80.83
2023-05-02T02:23:05.549Z,80.93
2023-05-02T02:24:05.514Z,81.24
2023-05-02T02:25:05.480Z,81.24
2023-05-02T02:26:05.460Z,80.93
2023-05-02T02:27:05.480Z,81.24
2023-05-02T02:28:05.384Z,81.34
2023-05-02T02:29:05.349Z,81.68
2023-05-02T02:30:05.331Z,81.99
2023-05-02T02:31:05.397Z,82.40
2023-05-02T02:32:05.262Z,83.01
2023-05-02T02:33:05.298Z,82.60
2023-05-02T02:34:05.222Z,82.81
2023-05-02T02:35:05.161Z,82.60
2023-05-02T02:36:05.113Z,82.60
2023-05-02T02:37:05.086Z,82.40
2023-05-02T02:38:05.062Z,82.60
2023-05-02T02:39:05.073Z,82.60
2023-05-02T02:40:05.015Z,82.40
2023-05-02T02:41:04.955Z,82.64
2023-05-02T02:42:04.923Z,82.64
2023-05-02T02:43:04.896Z,82.64
2023-05-02T02:44:04.858Z,82.64
2023-05-02T02:45:04.874Z,82.43
2023-05-02T02:46:04.811Z,82.23
2023-05-02T02:47:04.757Z,83.25
2023-05-02T02:48:04.771Z,83.05
2023-05-02T02:49:05.624Z,83.56
2023-05-02T02:50:04.658Z,83.46
2023-05-02T02:51:04.688Z,83.36
2023-05-02T02:52:04.605Z,84.38
2023-05-02T02:53:04.559Z,83.97
2023-05-02T02:54:12.397Z,84.17
2023-05-02T02:55:04.486Z,84.58
2023-05-02T02:56:04.526Z,84.48
2023-05-02T02:57:04.448Z,84.28
2023-05-02T02:58:04.398Z,84.38
2023-05-02T02:59:04.356Z,84.17
2023-05-02T03:00:04.319Z,84.28
2023-05-02T03:01:04.283Z,84.17
2023-05-02T03:02:04.378Z,84.48
2023-05-02T03:03:04.238Z,84.28
2023-05-02T03:04:04.207Z,84.38
2023-05-02T03:05:04.229Z,84.48
2023-05-02T03:06:04.151Z,84.42
2023-05-02T03:07:04.100Z,84.22
2023-05-02T03:08:04.107Z,84.22
2023-05-02T03:09:04.018Z,84.07
2023-05-02T03:10:03.982Z,84.38
2023-05-02T03:11:03.967Z,84.38
2023-05-02T03:12:03.924Z,84.28
2023-05-02T03:13:03.939Z,83.97
2023-05-02T03:14:03.854Z,83.87
2023-05-02T03:15:03.830Z,83.05
2023-05-02T03:16:03.845Z,83.36
2023-05-02T03:17:03.762Z,84.28
2023-05-02T03:18:03.838Z,84.28
2023-05-02T03:19:03.682Z,83.46
2023-05-02T03:20:03.650Z,84.28
2023-05-02T03:21:03.621Z,83.56
2023-05-02T03:22:03.631Z,84.31
2023-05-02T03:23:03.601Z,84.11
2023-05-02T03:24:03.519Z,84.11
2023-05-02T03:25:03.481Z,84.52
2023-05-02T03:26:03.450Z,84.42
2023-05-02T03:27:03.414Z,84.42
2023-05-02T03:28:03.398Z,84.46
2023-05-02T03:29:03.416Z,84.66
2023-05-02T03:30:03.326Z,85.07
2023-05-02T03:31:03.294Z,84.97
2023-05-02T03:32:03.393Z,84.66
2023-05-02T03:33:03.282Z,85.99
2023-05-02T03:34:03.249Z,85.89
2023-05-02T03:35:03.146Z,85.99
2023-05-02T03:36:03.117Z,85.69
2023-05-02T03:37:03.099Z,86.10
2023-05-02T03:38:03.050Z,85.79
2023-05-02T03:39:03.042Z,86.61
2023-05-02T03:40:03.190Z,86.81
2023-05-02T03:41:02.951Z,86.24
2023-05-02T03:42:02.962Z,86.30
2023-05-02T03:43:02.888Z,86.20
2023-05-02T03:44:02.858Z,85.63
2023-05-02T03:45:02.823Z,86.20
2023-05-02T03:46:02.955Z,85.69
2023-05-02T03:47:03.829Z,85.17
2023-05-02T03:48:02.803Z,84.87
2023-05-02T03:49:02.684Z,84.97
2023-05-02T03:50:02.843Z,84.63
2023-05-02T03:51:02.619Z,84.42
2023-05-02T03:52:02.664Z,84.31
2023-05-02T03:53:02.552Z,84.52
2023-05-02T03:54:02.540Z,84.22
2023-05-02T03:55:02.508Z,84.72
2023-05-02T03:56:02.452Z,84.01
2023-05-02T03:57:02.483Z,83.19
2023-05-02T03:58:02.380Z,83.46
2023-05-02T03:59:02.354Z,82.54
2023-05-02T04:00:02.510Z,82.64
2023-05-02T04:01:02.291Z,82.75
2023-05-02T04:02:02.325Z,82.70
2023-05-02T04:03:02.426Z,82.60
2023-05-02T04:04:02.222Z,82.29
2023-05-02T04:05:02.161Z,82.60
2023-05-02T04:06:02.186Z,82.40
2023-05-02T04:07:02.084Z,82.40
2023-05-02T04:08:02.083Z,81.99
2023-05-02T04:09:02.081Z,81.58
2023-05-02T04:10:02.334Z,81.44
2023-05-02T04:11:02.029Z,80.97
2023-05-02T04:12:02.022Z,81.44
2023-05-02T04:13:01.894Z,81.24
2023-05-02T04:14:01.927Z,80.83
2023-05-02T04:15:01.825Z,80.93
2023-05-02T04:16:01.788Z,80.73
2023-05-02T04:17:01.805Z,80.52
2023-05-02T04:18:01.816Z,80.62
2023-05-02T04:19:01.713Z,80.42
2023-05-02T04:20:04.829Z,80.32
2023-05-02T04:21:01.639Z,80.21
2023-05-02T04:22:01.592Z,80.18
2023-05-02T04:23:01.631Z,80.18
2023-05-02T04:24:01.565Z,80.28
2023-05-02T04:25:01.487Z,79.87
2023-05-02T04:26:01.487Z,79.46
2023-05-02T04:27:01.425Z,79.87
2023-05-02T04:28:01.458Z,79.57
2023-05-02T04:29:01.367Z,79.46
2023-05-02T04:30:01.701Z,79.66
2023-05-02T04:31:01.348Z,79.57
2023-05-02T04:32:01.270Z,79.66
2023-05-02T04:33:01.305Z,79.66
2023-05-02T04:34:01.254Z,79.66
2023-05-02T04:35:01.154Z,79.66
2023-05-02T04:36:01.136Z,79.36
2023-05-02T04:37:01.096Z,79.77
2023-05-02T04:38:01.077Z,79.57
2023-05-02T04:39:01.039Z,79.63
2023-05-02T04:40:01.331Z,79.63
2023-05-02T04:41:00.959Z,79.43
2023-05-02T04:42:00.934Z,79.52
2023-05-02T04:43:00.895Z,79.52
2023-05-02T04:44:00.869Z,79.43
2023-05-02T04:45:00.843Z,79.43
2023-05-02T04:46:00.872Z,79.43
2023-05-02T04:47:00.767Z,79.32
2023-05-02T04:48:07.691Z,79.22
2023-05-02T04:49:00.720Z,80.04
2023-05-02T04:50:00.912Z,79.52
2023-05-02T04:51:00.649Z,79.22
2023-05-02T04:52:00.681Z,79.73
2023-05-02T04:53:00.668Z,79.83
2023-05-02T04:54:00.603Z,79.93
2023-05-02T04:55:00.524Z,79.73
2023-05-02T04:56:00.474Z,79.22
2023-05-02T04:57:00.442Z,79.32
2023-05-02T04:58:00.413Z,79.73
2023-05-02T04:59:00.446Z,79.12
2023-05-02T05:00:00.622Z,79.49
2023-05-02T05:01:00.314Z,79.59
2023-05-02T05:02:00.345Z,79.28
2023-05-02T05:03:02.015Z,79.49
2023-05-02T05:04:00.441Z,79.73
2023-05-02T05:05:00.224Z,79.59
2023-05-02T05:06:00.237Z,79.59
2023-05-02T05:07:00.249Z,78.88
2023-05-02T05:08:00.123Z,79.73
2023-05-02T05:09:00.119Z,79.49
2023-05-02T05:10:00.574Z,79.18
2023-05-02T05:10:59.990Z,78.47
2023-05-02T05:11:59.965Z,78.47
2023-05-02T05:12:59.929Z,79.18
2023-05-02T05:14:00.003Z,78.67
2023-05-02T05:14:59.947Z,79.18
2023-05-02T05:15:59.923Z,78.67
2023-05-02T05:16:59.797Z,78.57
2023-05-02T05:17:59.789Z,78.77
2023-05-02T05:18:59.733Z,79.69
2023-05-02T05:19:59.860Z,79.55
2023-05-02T05:20:59.721Z,78.37
2023-05-02T05:21:59.690Z,79.08
2023-05-02T05:22:59.607Z,78.57
2023-05-02T05:23:59.579Z,78.74
2023-05-02T05:24:59.815Z,78.33
2023-05-02T05:25:59.503Z,78.74
2023-05-02T05:26:59.550Z,79.04
2023-05-02T05:27:59.434Z,78.80
2023-05-02T05:28:59.409Z,78.02
2023-05-02T05:29:59.605Z,77.98
2023-05-02T05:30:59.350Z,77.98
2023-05-02T05:31:59.357Z,77.89
2023-05-02T05:32:59.428Z,77.75
2023-05-02T05:33:59.282Z,77.44
2023-05-02T05:34:59.204Z,78.16
2023-05-02T05:35:59.177Z,77.81
2023-05-02T05:36:59.156Z,77.61
2023-05-02T05:37:59.119Z,76.79
2023-05-02T05:38:59.664Z,77.20
2023-05-02T05:39:59.492Z,77.17
2023-05-02T05:40:59.055Z,76.56
2023-05-02T05:41:58.995Z,77.06
2023-05-02T05:42:58.962Z,76.56
2023-05-02T05:43:58.980Z,76.65
2023-05-02T05:44:58.916Z,76.65
2023-05-02T05:45:58.863Z,77.06
2023-05-02T05:46:58.977Z,77.23
2023-05-02T05:47:58.831Z,76.56
2023-05-02T05:48:58.831Z,76.69
2023-05-02T05:49:58.866Z,77.20
2023-05-02T05:50:58.716Z,77.20
2023-05-02T05:51:58.674Z,77.06
2023-05-02T05:52:58.641Z,77.06
2023-05-02T05:53:58.678Z,77.06
2023-05-02T05:54:58.571Z,76.86
2023-05-02T05:55:58.551Z,76.92
2023-05-02T05:56:58.530Z,76.11
2023-05-02T05:57:58.491Z,75.57
2023-05-02T05:58:58.505Z,75.57
2023-05-02T05:59:58.520Z,75.43
2023-05-02T06:00:58.382Z,75.12
2023-05-02T06:01:58.367Z,75.43
2023-05-02T06:02:58.409Z,75.40
2023-05-02T06:03:58.464Z,74.68
2023-05-02T06:04:58.291Z,74.28
2023-05-02T06:05:58.258Z,73.94
2023-05-02T06:06:58.253Z,74.68
2023-05-02T06:07:58.181Z,74.68
2023-05-02T06:08:58.135Z,75.53
2023-05-02T06:09:58.611Z,75.49
2023-05-02T06:10:58.091Z,75.40
2023-05-02T06:11:58.044Z,75.60
2023-05-02T06:12:58.086Z,75.49
2023-05-02T06:13:58.048Z,75.40
2023-05-02T06:14:57.951Z,75.49
2023-05-02T06:15:58.026Z,75.70
2023-05-02T06:16:57.883Z,75.56
2023-05-02T06:17:57.882Z,75.46
2023-05-02T06:18:57.823Z,75.46
2023-05-02T06:19:58.087Z,75.56
2023-05-02T06:20:57.773Z,75.36
2023-05-02T06:21:57.791Z,75.52
2023-05-02T06:22:57.703Z,75.52
2023-05-02T06:23:57.676Z,75.52
2023-05-02T06:24:57.660Z,75.56
2023-05-02T06:25:57.628Z,76.10
2023-05-02T06:26:57.689Z,76.21
2023-05-02T06:27:57.617Z,76.31
2023-05-02T06:28:57.529Z,77.26
2023-05-02T06:29:57.799Z,77.67
2023-05-02T06:30:57.535Z,78.31
2023-05-02T06:31:57.542Z,78.31
2023-05-02T06:32:57.482Z,78.31
2023-05-02T06:33:57.452Z,78.21
2023-05-02T06:34:57.376Z,78.21
2023-05-02T06:35:59.198Z,78.45
2023-05-02T06:36:57.290Z,79.57
2023-05-02T06:37:57.300Z,79.41
2023-05-02T06:38:57.206Z,79.06
2023-05-02T06:39:57.287Z,78.31
2023-05-02T06:40:57.163Z,78.76
2023-05-02T06:41:57.146Z,79.16
2023-05-02T06:42:57.089Z,79.41
2023-05-02T06:43:57.064Z,79.71
2023-05-02T06:44:57.022Z,79.50
2023-05-02T06:45:57.046Z,79.41
2023-05-02T06:46:57.022Z,79.68
2023-05-02T06:47:56.965Z,79.16
2023-05-02T06:48:56.895Z,79.37
2023-05-02T06:49:56.900Z,79.47
2023-05-02T06:50:56.856Z,78.82
2023-05-02T06:51:56.868Z,79.53
2023-05-02T06:52:56.771Z,80.69
2023-05-02T06:53:56.742Z,80.76
2023-05-02T06:54:56.715Z,80.59
2023-05-02T06:55:56.676Z,80.96
2023-05-02T06:56:56.660Z,80.85
2023-05-02T06:57:56.695Z,81.06
2023-05-02T06:58:56.622Z,81.16
2023-05-02T06:59:56.554Z,81.98
2023-05-02T07:00:56.618Z,82.18
2023-05-02T07:01:56.484Z,81.98
2023-05-02T07:02:56.552Z,81.87
2023-05-02T07:03:56.515Z,82.18
2023-05-02T07:04:56.413Z,81.98
2023-05-02T07:05:56.360Z,82.07
2023-05-02T07:06:56.394Z,82.28
2023-05-02T07:07:56.309Z,82.34
2023-05-02T07:08:56.271Z,82.00
2023-05-02T07:09:56.306Z,80.47
2023-05-02T07:10:56.206Z,80.44
2023-05-02T07:11:56.185Z,80.37
2023-05-02T07:12:56.138Z,80.54
2023-05-02T07:13:56.119Z,79.69
2023-05-02T07:14:56.142Z,78.88
2023-05-02T07:15:56.061Z,79.18
2023-05-02T07:16:56.038Z,79.28
2023-05-02T07:17:56.030Z,79.35
2023-05-02T07:18:55.971Z,79.45
2023-05-02T07:19:55.979Z,79.25
2023-05-02T07:20:55.902Z,79.25
2023-05-02T07:21:55.876Z,78.94
2023-05-02T07:22:55.839Z,78.06
2023-05-02T07:23:55.808Z,78.17
2023-05-02T07:24:55.780Z,78.98
2023-05-02T07:25:55.808Z,79.72
2023-05-02T07:26:55.727Z,80.13
2023-05-02T07:27:55.686Z,79.69
2023-05-02T07:28:55.655Z,78.94
2023-05-02T07:29:55.626Z,78.98
2023-05-02T07:30:55.595Z,79.14
2023-05-02T07:31:55.676Z,78.60
2023-05-02T07:32:55.583Z,78.19
2023-05-02T07:33:55.511Z,77.79
2023-05-02T07:34:55.476Z,77.69
2023-05-02T07:35:55.451Z,77.38
2023-05-02T07:36:55.405Z,77.28
2023-05-02T07:37:55.441Z,78.17
2023-05-02T07:38:55.380Z,79.08
2023-05-02T07:39:55.340Z,78.88
2023-05-02T07:40:55.297Z,79.22
2023-05-02T07:41:55.288Z,79.18
2023-05-02T07:42:55.228Z,78.88
2023-05-02T07:43:55.251Z,78.74
2023-05-02T07:44:55.178Z,78.13
2023-05-02T07:45:55.326Z,77.59
2023-05-02T07:46:55.110Z,77.45
2023-05-02T07:47:55.107Z,76.33
2023-05-02T07:48:55.048Z,76.13
2023-05-02T07:49:55.018Z,76.78
2023-05-02T07:50:54.996Z,77.08
2023-05-02T07:51:55.023Z,76.84
2023-05-02T07:52:54.928Z,76.43
2023-05-02T07:53:54.895Z,76.29
2023-05-02T07:54:54.869Z,76.16
2023-05-02T07:55:54.833Z,75.59
2023-05-02T07:56:54.874Z,75.04
2023-05-02T07:57:54.795Z,75.31
2023-05-02T07:58:54.751Z,74.07
2023-05-02T07:59:54.725Z,74.27
2023-05-02T08:00:54.699Z,73.63
2023-05-02T08:01:54.841Z,73.52
2023-05-02T08:02:54.680Z,73.19
2023-05-02T08:03:54.907Z,72.28
2023-05-02T08:04:54.612Z,72.14
2023-05-02T08:05:54.545Z,71.94
2023-05-02T08:06:54.590Z,71.64
2023-05-02T08:07:54.553Z,71.26
2023-05-02T08:08:54.459Z,70.49
2023-05-02T08:09:54.439Z,70.69
2023-05-02T08:10:54.422Z,70.93
2023-05-02T08:11:54.415Z,72.17
2023-05-02T08:12:54.344Z,71.94
2023-05-02T08:13:54.371Z,71.87
2023-05-02T08:14:54.296Z,71.87
2023-05-02T08:15:54.304Z,72.14
2023-05-02T08:16:55.215Z,71.10
2023-05-02T08:17:54.215Z,70.89
2023-05-02T08:18:54.170Z,70.59
2023-05-02T08:19:54.202Z,71.84
2023-05-02T08:20:54.134Z,71.84
2023-05-02T08:21:54.090Z,71.94
2023-05-02T08:22:54.061Z,71.70
2023-05-02T08:23:54.030Z,71.33
2023-05-02T08:24:54.716Z,70.59
2023-05-02T08:25:54.131Z,70.66
2023-05-02T08:26:53.977Z,70.86
2023-05-02T08:27:53.948Z,71.06
2023-05-02T08:28:53.890Z,70.76
2023-05-02T08:29:53.862Z,70.79
2023-05-02T08:30:53.833Z,71.20
2023-05-02T08:31:53.992Z,70.79
2023-05-02T08:32:53.899Z,69.98
2023-05-02T08:33:53.756Z,70.19
2023-05-02T08:34:53.775Z,70.49
2023-05-02T08:35:53.702Z,69.98
2023-05-02T08:36:54.440Z,70.36
2023-05-02T08:37:53.704Z,70.15
2023-05-02T08:38:53.616Z,70.36
2023-05-02T08:39:53.598Z,69.72
2023-05-02T08:40:53.567Z,69.92
2023-05-02T08:41:53.529Z,69.62
2023-05-02T08:42:53.509Z,69.59
2023-05-02T08:43:53.525Z,68.77
2023-05-02T08:44:53.453Z,68.71
2023-05-02T08:45:53.411Z,69.11
2023-05-02T08:46:53.453Z,69.65
2023-05-02T08:47:53.395Z,70.06
2023-05-02T08:48:53.395Z,70.26
2023-05-02T08:49:53.306Z,70.36
2023-05-02T08:50:53.276Z,70.06
2023-05-02T08:51:53.258Z,70.29
2023-05-02T08:52:53.245Z,72.04
2023-05-02T08:53:53.200Z,71.80
2023-05-02T08:54:53.216Z,71.40
2023-05-02T08:55:53.162Z,71.20
2023-05-02T08:56:53.101Z,71.40
2023-05-02T08:57:53.080Z,71.23
2023-05-02T08:58:53.061Z,71.87
2023-05-02T08:59:53.098Z,71.97
2023-05-02T09:00:53.130Z,73.39
2023-05-02T09:01:52.982Z,72.78
2023-05-02T09:02:52.985Z,73.12
2023-05-02T09:03:52.978Z,73.12
2023-05-02T09:04:52.901Z,73.83
2023-05-02T09:05:52.913Z,74.27
2023-05-02T09:06:52.920Z,73.96
2023-05-02T09:07:52.800Z,74.03
2023-05-02T09:08:52.771Z,73.72
2023-05-02T09:09:52.752Z,73.52
2023-05-02T09:10:52.739Z,73.52
2023-05-02T09:11:52.740Z,73.93
2023-05-02T09:12:52.673Z,74.23
2023-05-02T09:13:52.692Z,73.93
2023-05-02T09:14:52.613Z,73.22
2023-05-02T09:15:52.874Z,73.69
2023-05-02T09:16:52.575Z,73.28
2023-05-02T09:17:52.651Z,73.19
2023-05-02T09:18:52.490Z,72.78
2023-05-02T09:19:52.470Z,72.88
2023-05-02T09:20:52.440Z,72.99
2023-05-02T09:21:52.404Z,73.08
2023-05-02T09:22:52.371Z,73.08
2023-05-02T09:23:52.421Z,73.63
2023-05-02T09:24:52.322Z,74.33
2023-05-02T09:25:52.290Z,74.54
2023-05-02T09:26:52.262Z,74.71
2023-05-02T09:27:52.275Z,75.89
2023-05-02T09:28:52.197Z,76.84
2023-05-02T09:29:52.222Z,77.04
2023-05-02T09:30:52.199Z,76.94
2023-05-02T09:31:56.365Z,76.90
2023-05-02T09:32:52.261Z,76.94
2023-05-02T09:33:52.065Z,77.45
2023-05-02T09:34:52.085Z,77.55
2023-05-02T09:35:52.003Z,77.86
2023-05-02T09:36:52.132Z,77.25
2023-05-02T09:37:51.973Z,77.41
2023-05-02T09:38:51.915Z,76.70
2023-05-02T09:39:52.159Z,76.80
2023-05-02T09:40:51.954Z,76.70
2023-05-02T09:41:51.835Z,77.38
2023-05-02T09:42:51.803Z,77.79
2023-05-02T09:43:51.783Z,78.03
2023-05-02T09:44:51.738Z,78.23
2023-05-02T09:45:51.727Z,79.49
2023-05-02T09:46:51.956Z,79.90
2023-05-02T09:47:51.653Z,80.74
2023-05-02T09:48:51.624Z,81.29
2023-05-02T09:49:51.656Z,81.79
2023-05-02T09:50:51.572Z,82.61
2023-05-02T09:51:51.532Z,82.20
2023-05-02T09:52:51.543Z,82.85
2023-05-02T09:53:51.476Z,83.62
2023-05-02T09:54:51.470Z,83.46
2023-05-02T09:55:51.462Z,83.76
2023-05-02T09:56:51.381Z,83.32
2023-05-02T09:57:51.361Z,82.51
2023-05-02T09:58:51.397Z,82.92
2023-05-02T09:59:51.298Z,83.42
2023-05-02T10:00:51.312Z,82.37
2023-05-02T10:01:51.787Z,83.62
2023-05-02T10:02:51.224Z,83.53
2023-05-02T10:03:51.250Z,84.17
2023-05-02T10:04:51.138Z,85.64
2023-05-02T10:05:51.112Z,85.82
2023-05-02T10:06:51.112Z,87.14
2023-05-02T10:07:51.102Z,87.84
2023-05-02T10:08:51.041Z,89.06
2023-05-02T10:09:50.980Z,89.36
2023-05-02T10:10:50.954Z,89.26
2023-05-02T10:11:50.945Z,89.81
2023-05-02T10:12:50.876Z,89.96
2023-05-02T10:13:51.198Z,90.26
2023-05-02T10:14:50.830Z,91.02
2023-05-02T10:15:50.833Z,91.43
2023-05-02T10:16:50.755Z,91.53
2023-05-02T10:17:50.814Z,91.63
2023-05-02T10:18:50.707Z,91.12
2023-05-02T10:19:50.729Z,91.37
2023-05-02T10:20:50.632Z,91.12
2023-05-02T10:21:50.605Z,91.12
2023-05-02T10:22:50.578Z,91.06
2023-05-02T10:23:50.528Z,91.53
2023-05-02T10:24:50.515Z,91.33
2023-05-02T10:25:50.528Z,90.55
2023-05-02T10:26:50.447Z,90.86
2023-05-02T10:27:50.396Z,90.20
2023-05-02T10:28:50.376Z,89.75
2023-05-02T10:29:50.340Z,88.73
2023-05-02T10:30:50.307Z,88.26
2023-05-02T10:31:50.344Z,87.96
2023-05-02T10:32:50.264Z,87.85
2023-05-02T10:33:50.210Z,87.04
2023-05-02T10:34:50.179Z,87.04
2023-05-02T10:35:50.149Z,86.83
2023-05-02T10:36:50.109Z,86.83
2023-05-02T10:37:50.134Z,86.12
2023-05-02T10:38:50.055Z,86.06
2023-05-02T10:39:50.026Z,86.91
2023-05-02T10:40:49.992Z,86.41
2023-05-02T10:41:50.071Z,86.30
2023-05-02T10:42:49.925Z,86.30
2023-05-02T10:43:49.944Z,86.67
2023-05-02T10:44:49.853Z,86.36
2023-05-02T10:45:49.911Z,85.41
2023-05-02T10:46:49.810Z,84.90
2023-05-02T10:47:49.785Z,84.80
2023-05-02T10:48:49.733Z,83.98
2023-05-02T10:49:49.753Z,84.49
2023-05-02T10:50:49.673Z,83.98
2023-05-02T10:51:49.635Z,83.39
2023-05-02T10:52:49.593Z,81.04
2023-05-02T10:53:49.592Z,81.15
2023-05-02T10:54:49.537Z,80.88
2023-05-02T10:55:49.587Z,80.30
2023-05-02T10:56:49.484Z,80.96
2023-05-02T10:57:49.443Z,80.55
2023-05-02T10:58:49.409Z,81.37
2023-05-02T10:59:49.384Z,80.75
2023-05-02T11:00:49.366Z,80.71
2023-05-02T11:01:49.401Z,80.71
2023-05-02T11:02:49.404Z,80.10
2023-05-02T11:03:49.246Z,80.30
2023-05-02T11:04:49.221Z,80.96
2023-05-02T11:05:49.206Z,80.85
2023-05-02T11:06:49.214Z,81.16
2023-05-02T11:07:49.239Z,80.65
2023-05-02T11:08:49.095Z,80.61
2023-05-02T11:09:49.073Z,79.80
2023-05-02T11:10:49.020Z,80.10
2023-05-02T11:11:49.029Z,80.20
2023-05-02T11:12:49.098Z,79.66
2023-05-02T11:13:48.993Z,79.35
2023-05-02T11:14:48.893Z,78.50
2023-05-02T11:15:48.864Z,78.05
2023-05-02T11:16:49.445Z,77.34
2023-05-02T11:17:48.825Z,75.88
2023-05-02T11:18:48.804Z,76.04
2023-05-02T11:19:48.811Z,76.15
2023-05-02T11:20:48.701Z,75.54
2023-05-02T11:21:48.680Z,75.67
2023-05-02T11:22:48.649Z,77.34
2023-05-02T11:23:48.606Z,77.34
2023-05-02T11:24:48.684Z,77.95
2023-05-02T11:25:48.660Z,77.75
2023-05-02T11:26:48.520Z,77.61
2023-05-02T11:27:48.484Z,75.78
2023-05-02T11:28:48.689Z,75.47
2023-05-02T11:29:48.418Z,75.67
2023-05-02T11:30:48.410Z,75.85
2023-05-02T11:31:48.499Z,76.97
2023-05-02T11:32:48.524Z,77.31
2023-05-02T11:33:48.298Z,77.51
2023-05-02T11:34:48.286Z,77.62
2023-05-02T11:35:48.248Z,77.72
2023-05-02T11:36:48.204Z,77.86
2023-05-02T11:37:48.254Z,78.27
2023-05-02T11:38:49.265Z,78.13
2023-05-02T11:39:48.112Z,77.07
2023-05-02T11:40:48.091Z,76.80
2023-05-02T11:41:48.062Z,76.42
2023-05-02T11:42:48.015Z,75.88
2023-05-02T11:43:48.042Z,75.67
2023-05-02T11:44:47.955Z,75.47
2023-05-02T11:45:47.924Z,75.27
2023-05-02T11:46:47.951Z,74.93
2023-05-02T11:47:47.897Z,74.62
2023-05-02T11:48:47.927Z,74.72
2023-05-02T11:49:47.807Z,74.72
2023-05-02T11:50:50.330Z,74.48
2023-05-02T11:51:47.746Z,75.09
2023-05-02T11:52:47.716Z,75.30
2023-05-02T11:53:47.702Z,74.55
2023-05-02T11:54:47.702Z,74.04
2023-05-02T11:55:47.614Z,73.70
2023-05-02T11:56:47.574Z,72.38
2023-05-02T11:57:47.573Z,72.69
2023-05-02T11:58:47.533Z,72.38
2023-05-02T11:59:47.555Z,72.38
2023-05-02T12:00:48.281Z,72.38
2023-05-02T12:01:47.423Z,72.52
2023-05-02T12:02:47.437Z,72.82
2023-05-02T12:03:47.437Z,72.52
2023-05-02T12:04:47.388Z,72.31
2023-05-02T12:05:47.341Z,73.36
2023-05-02T12:06:47.337Z,73.23
2023-05-02T12:07:47.239Z,73.23
2023-05-02T12:08:47.224Z,72.21
2023-05-02T12:09:47.184Z,72.41
2023-05-02T12:10:47.208Z,73.77
2023-05-02T12:11:47.184Z,74.08
2023-05-02T12:12:47.087Z,74.21
2023-05-02T12:13:47.099Z,74.08
2023-05-02T12:14:47.027Z,74.18
2023-05-02T12:15:47.047Z,73.47
2023-05-02T12:16:47.057Z,72.82
2023-05-02T12:17:46.989Z,72.52
2023-05-02T12:18:46.915Z,72.17
2023-05-02T12:19:46.892Z,71.87
2023-05-02T12:20:46.855Z,72.72
2023-05-02T12:21:46.881Z,73.33
2023-05-02T12:22:46.791Z,72.48
2023-05-02T12:23:46.766Z,72.38
2023-05-02T12:24:46.740Z,71.80
2023-05-02T12:25:46.685Z,70.08
2023-05-02T12:26:46.656Z,70.35
2023-05-02T12:27:46.689Z,68.62
2023-05-02T12:28:46.595Z,68.42
2023-05-02T12:29:46.568Z,69.47
2023-05-02T12:30:46.541Z,68.83
2023-05-02T12:31:46.537Z,68.62
2023-05-02T12:32:46.543Z,69.13
2023-05-02T12:33:46.447Z,68.08
2023-05-02T12:34:46.411Z,67.91
2023-05-02T12:35:46.394Z,68.01
2023-05-02T12:36:46.360Z,68.55
2023-05-02T12:37:47.349Z,68.45
2023-05-02T12:38:46.348Z,69.17
2023-05-02T12:39:46.263Z,68.96
2023-05-02T12:40:46.230Z,69.30
2023-05-02T12:41:46.255Z,70.11
2023-05-02T12:42:46.175Z,68.66
2023-05-02T12:43:46.209Z,66.93
2023-05-02T12:44:46.120Z,66.72
2023-05-02T12:45:46.140Z,67.06
2023-05-02T12:46:46.081Z,66.72
2023-05-02T12:47:46.040Z,67.54
2023-05-02T12:48:46.780Z,67.41
2023-05-02T12:49:46.007Z,67.98
2023-05-02T12:50:45.936Z,67.88
2023-05-02T12:51:45.901Z,68.15